sensor_id;sensor_type;location;lat;lon;timestamp;pressure;altitude;pressure_sealevel;temperature;humidity
39411;BME280;26579;43.238;23.124;2023-04-16T00:01:55;96471.34;;;12.42;52.11
39411;BME280;26579;43.238;23.124;2023-04-16T00:04:21;96481.59;;;12.54;51.96
39411;BME280;26579;43.238;23.124;2023-04-16T00:06:47;96474.47;;;12.46;51.91
39411;BME280;26579;43.238;23.124;2023-04-16T00:09:12;96498.16;;;12.62;52.31
39411;BME280;26579;43.238;23.124;2023-04-16T00:11:38;96494.56;;;12.63;51.62
39411;BME280;26579;43.238;23.124;2023-04-16T00:14:04;96494.94;;;12.68;51.04
39411;BME280;26579;43.238;23.124;2023-04-16T00:16:30;96485.16;;;12.71;51.33
39411;BME280;26579;43.238;23.124;2023-04-16T00:18:55;96493.53;;;12.74;51.29
39411;BME280;26579;43.238;23.124;2023-04-16T00:21:21;96492.38;;;12.77;51.68
39411;BME280;26579;43.238;23.124;2023-04-16T00:23:47;96489.94;;;12.75;51.88
39411;BME280;26579;43.238;23.124;2023-04-16T00:26:12;96483.34;;;12.71;51.76
39411;BME280;26579;43.238;23.124;2023-04-16T00:28:41;96475.59;;;12.61;51.55
39411;BME280;26579;43.238;23.124;2023-04-16T00:31:07;96476.28;;;12.63;51.48
39411;BME280;26579;43.238;23.124;2023-04-16T00:33:32;96468.88;;;12.59;52.10
39411;BME280;26579;43.238;23.124;2023-04-16T00:35:59;96466.44;;;12.57;51.13
39411;BME280;26579;43.238;23.124;2023-04-16T00:38:25;96472.69;;;12.64;50.62
39411;BME280;26579;43.238;23.124;2023-04-16T00:40:50;96458.91;;;12.54;50.67
39411;BME280;26579;43.238;23.124;2023-04-16T00:43:22;96484.03;;;12.73;50.60
39411;BME280;26579;43.238;23.124;2023-04-16T00:45:48;96478.13;;;12.71;50.89
39411;BME280;26579;43.238;23.124;2023-04-16T00:48:15;96482.19;;;12.65;50.78
39411;BME280;26579;43.238;23.124;2023-04-16T00:50:41;96466.06;;;12.52;50.67
39411;BME280;26579;43.238;23.124;2023-04-16T00:53:07;96473.44;;;12.57;50.12
39411;BME280;26579;43.238;23.124;2023-04-16T00:55:33;96463.06;;;12.47;50.51
39411;BME280;26579;43.238;23.124;2023-04-16T00:57:59;96472.09;;;12.53;50.22
39411;BME280;26579;43.238;23.124;2023-04-16T01:00:24;96469.47;;;12.53;50.73
39411;BME280;26579;43.238;23.124;2023-04-16T01:02:50;96452.41;;;12.40;50.65
39411;BME280;26579;43.238;23.124;2023-04-16T01:05:17;96459.13;;;12.43;50.83
39411;BME280;26579;43.238;23.124;2023-04-16T01:07:43;96461.72;;;12.43;50.80
39411;BME280;26579;43.238;23.124;2023-04-16T01:10:09;96444.78;;;12.29;50.17
39411;BME280;26579;43.238;23.124;2023-04-16T01:12:35;96446.72;;;12.27;50.41
39411;BME280;26579;43.238;23.124;2023-04-16T01:15:01;96440.84;;;12.25;50.54
39411;BME280;26579;43.238;23.124;2023-04-16T01:17:26;96449.50;;;12.26;50.37
39411;BME280;26579;43.238;23.124;2023-04-16T01:19:52;96457.25;;;12.35;50.06
39411;BME280;26579;43.238;23.124;2023-04-16T01:22:18;96462.63;;;12.34;50.46
39411;BME280;26579;43.238;23.124;2023-04-16T01:24:44;96460.66;;;12.36;50.66
39411;BME280;26579;43.238;23.124;2023-04-16T01:27:09;96452.78;;;12.28;50.10
39411;BME280;26579;43.238;23.124;2023-04-16T01:29:35;96446.34;;;12.22;50.53
39411;BME280;26579;43.238;23.124;2023-04-16T01:32:01;96441.66;;;12.26;50.39
39411;BME280;26579;43.238;23.124;2023-04-16T01:34:32;96446.19;;;12.23;50.54
39411;BME280;26579;43.238;23.124;2023-04-16T01:36:58;96448.41;;;12.18;50.71
39411;BME280;26579;43.238;23.124;2023-04-16T01:39:24;96457.22;;;12.17;50.51
39411;BME280;26579;43.238;23.124;2023-04-16T01:41:49;96439.25;;;12.14;50.32
39411;BME280;26579;43.238;23.124;2023-04-16T01:44:15;96435.97;;;12.12;50.39
39411;BME280;26579;43.238;23.124;2023-04-16T01:46:41;96430.22;;;12.09;50.76
39411;BME280;26579;43.238;23.124;2023-04-16T01:49:08;96441.94;;;12.05;51.18
39411;BME280;26579;43.238;23.124;2023-04-16T01:51:33;96431.41;;;11.96;50.91
39411;BME280;26579;43.238;23.124;2023-04-16T01:53:59;96426.72;;;12.00;50.40
39411;BME280;26579;43.238;23.124;2023-04-16T01:56:25;96439.84;;;12.08;49.90
39411;BME280;26579;43.238;23.124;2023-04-16T01:58:51;96435.88;;;12.04;50.26
39411;BME280;26579;43.238;23.124;2023-04-16T02:01:18;96413.19;;;11.87;51.01
39411;BME280;26579;43.238;23.124;2023-04-16T02:03:45;96424.72;;;11.84;50.49
39411;BME280;26579;43.238;23.124;2023-04-16T02:06:10;96420.22;;;11.76;51.06
39411;BME280;26579;43.238;23.124;2023-04-16T02:08:36;96402.31;;;11.64;50.98
39411;BME280;26579;43.238;23.124;2023-04-16T02:11:02;96409.75;;;11.59;50.82
39411;BME280;26579;43.238;23.124;2023-04-16T02:13:28;96403.75;;;11.48;51.54
39411;BME280;26579;43.238;23.124;2023-04-16T02:15:53;96410.47;;;11.51;51.61
39411;BME280;26579;43.238;23.124;2023-04-16T02:18:29;96397.59;;;11.40;51.80
39411;BME280;26579;43.238;23.124;2023-04-16T02:20:57;96427.06;;;11.50;52.34
39411;BME280;26579;43.238;23.124;2023-04-16T02:23:23;96406.81;;;11.44;51.80
39411;BME280;26579;43.238;23.124;2023-04-16T02:25:49;96416.75;;;11.58;50.43
39411;BME280;26579;43.238;23.124;2023-04-16T02:28:15;96427.25;;;11.66;51.23
39411;BME280;26579;43.238;23.124;2023-04-16T02:30:43;96427.53;;;11.73;50.69
39411;BME280;26579;43.238;23.124;2023-04-16T02:33:11;96424.75;;;11.74;51.15
39411;BME280;26579;43.238;23.124;2023-04-16T02:35:40;96409.31;;;11.63;52.14
39411;BME280;26579;43.238;23.124;2023-04-16T02:38:06;96435.63;;;11.70;52.46
39411;BME280;26579;43.238;23.124;2023-04-16T02:40:34;96425.03;;;11.71;53.00
39411;BME280;26579;43.238;23.124;2023-04-16T02:43:00;96428.34;;;11.73;53.41
39411;BME280;26579;43.238;23.124;2023-04-16T02:45:26;96425.31;;;11.78;53.35
39411;BME280;26579;43.238;23.124;2023-04-16T02:47:52;96423.78;;;11.85;53.05
39411;BME280;26579;43.238;23.124;2023-04-16T02:50:17;96431.88;;;11.82;52.76
39411;BME280;26579;43.238;23.124;2023-04-16T02:52:43;96420.34;;;11.75;51.81
39411;BME280;26579;43.238;23.124;2023-04-16T02:55:09;96436.09;;;11.83;51.58
39411;BME280;26579;43.238;23.124;2023-04-16T02:57:35;96426.13;;;11.78;52.06
39411;BME280;26579;43.238;23.124;2023-04-16T03:00:01;96432.13;;;11.89;52.67
39411;BME280;26579;43.238;23.124;2023-04-16T03:02:27;96435.97;;;11.85;52.71
39411;BME280;26579;43.238;23.124;2023-04-16T03:04:53;96428.56;;;11.90;52.40
39411;BME280;26579;43.238;23.124;2023-04-16T03:07:18;96426.22;;;11.87;52.40
39411;BME280;26579;43.238;23.124;2023-04-16T03:09:45;96433.66;;;11.82;52.36
39411;BME280;26579;43.238;23.124;2023-04-16T03:12:11;96429.69;;;11.77;52.72
39411;BME280;26579;43.238;23.124;2023-04-16T03:14:37;96413.88;;;11.61;52.65
39411;BME280;26579;43.238;23.124;2023-04-16T03:17:03;96428.09;;;11.67;53.08
39411;BME280;26579;43.238;23.124;2023-04-16T03:19:28;96406.50;;;11.47;53.83
39411;BME280;26579;43.238;23.124;2023-04-16T03:21:54;96421.97;;;11.58;54.18
39411;BME280;26579;43.238;23.124;2023-04-16T03:24:20;96426.50;;;11.56;53.62
39411;BME280;26579;43.238;23.124;2023-04-16T03:26:47;96433.63;;;11.64;53.34
39411;BME280;26579;43.238;23.124;2023-04-16T03:29:13;96440.97;;;11.68;52.88
39411;BME280;26579;43.238;23.124;2023-04-16T03:31:39;96434.94;;;11.68;52.61
39411;BME280;26579;43.238;23.124;2023-04-16T03:34:04;96433.97;;;11.69;53.32
39411;BME280;26579;43.238;23.124;2023-04-16T03:36:31;96430.91;;;11.55;53.00
39411;BME280;26579;43.238;23.124;2023-04-16T03:38:56;96425.69;;;11.46;53.06
39411;BME280;26579;43.238;23.124;2023-04-16T03:41:22;96436.69;;;11.49;53.57
39411;BME280;26579;43.238;23.124;2023-04-16T03:43:48;96428.72;;;11.51;53.64
39411;BME280;26579;43.238;23.124;2023-04-16T03:46:14;96435.28;;;11.55;53.69
39411;BME280;26579;43.238;23.124;2023-04-16T03:48:40;96445.00;;;11.63;52.72
39411;BME280;26579;43.238;23.124;2023-04-16T03:51:06;96437.03;;;11.64;52.27
39411;BME280;26579;43.238;23.124;2023-04-16T03:53:32;96434.81;;;11.69;52.38
39411;BME280;26579;43.238;23.124;2023-04-16T03:55:58;96436.84;;;11.75;52.43
39411;BME280;26579;43.238;23.124;2023-04-16T03:58:24;96445.84;;;11.91;52.20
39411;BME280;26579;43.238;23.124;2023-04-16T04:00:54;96447.25;;;11.85;52.33
39411;BME280;26579;43.238;23.124;2023-04-16T04:03:19;96450.69;;;11.86;53.42
39411;BME280;26579;43.238;23.124;2023-04-16T04:05:47;96450.25;;;11.81;54.83
39411;BME280;26579;43.238;23.124;2023-04-16T04:08:17;96449.97;;;11.84;55.51
39411;BME280;26579;43.238;23.124;2023-04-16T04:10:43;96441.50;;;11.72;56.03
39411;BME280;26579;43.238;23.124;2023-04-16T04:13:10;96450.81;;;11.84;55.20
39411;BME280;26579;43.238;23.124;2023-04-16T04:15:36;96438.59;;;11.75;54.89
39411;BME280;26579;43.238;23.124;2023-04-16T04:18:01;96463.66;;;11.95;55.02
39411;BME280;26579;43.238;23.124;2023-04-16T04:20:27;96456.81;;;11.94;54.71
39411;BME280;26579;43.238;23.124;2023-04-16T04:22:53;96465.84;;;12.00;54.36
39411;BME280;26579;43.238;23.124;2023-04-16T04:25:22;96461.09;;;11.86;54.80
39411;BME280;26579;43.238;23.124;2023-04-16T04:27:47;96459.19;;;11.88;54.95
39411;BME280;26579;43.238;23.124;2023-04-16T04:30:13;96465.63;;;11.93;55.25
39411;BME280;26579;43.238;23.124;2023-04-16T04:32:40;96478.75;;;12.02;55.25
39411;BME280;26579;43.238;23.124;2023-04-16T04:35:06;96457.34;;;11.98;55.44
39411;BME280;26579;43.238;23.124;2023-04-16T04:37:32;96459.34;;;12.04;55.40
39411;BME280;26579;43.238;23.124;2023-04-16T04:39:58;96466.06;;;12.07;55.71
39411;BME280;26579;43.238;23.124;2023-04-16T04:42:23;96466.34;;;12.13;55.98
39411;BME280;26579;43.238;23.124;2023-04-16T04:44:49;96479.31;;;12.23;56.11
39411;BME280;26579;43.238;23.124;2023-04-16T04:47:15;96480.50;;;12.29;56.06
39411;BME280;26579;43.238;23.124;2023-04-16T04:49:40;96467.53;;;12.19;55.66
39411;BME280;26579;43.238;23.124;2023-04-16T04:52:07;96488.34;;;12.29;56.27
39411;BME280;26579;43.238;23.124;2023-04-16T04:54:33;96473.28;;;12.22;56.68
39411;BME280;26579;43.238;23.124;2023-04-16T04:56:59;96483.03;;;12.38;56.87
39411;BME280;26579;43.238;23.124;2023-04-16T04:59:25;96470.59;;;12.32;56.38
39411;BME280;26579;43.238;23.124;2023-04-16T05:01:51;96443.50;;;12.15;56.62
39411;BME280;26579;43.238;23.124;2023-04-16T05:04:16;96466.47;;;12.30;56.76
39411;BME280;26579;43.238;23.124;2023-04-16T05:06:42;96473.59;;;12.37;56.35
39411;BME280;26579;43.238;23.124;2023-04-16T05:09:09;96476.31;;;12.36;56.10
39411;BME280;26579;43.238;23.124;2023-04-16T05:11:36;96477.69;;;12.40;56.64
39411;BME280;26579;43.238;23.124;2023-04-16T05:14:02;96459.56;;;12.38;56.54
39411;BME280;26579;43.238;23.124;2023-04-16T05:16:27;96484.53;;;12.41;56.69
39411;BME280;26579;43.238;23.124;2023-04-16T05:18:53;96476.63;;;12.33;58.80
39411;BME280;26579;43.238;23.124;2023-04-16T05:21:19;96482.97;;;12.30;59.08
39411;BME280;26579;43.238;23.124;2023-04-16T05:23:44;96477.19;;;12.36;59.23
39411;BME280;26579;43.238;23.124;2023-04-16T05:26:10;96467.47;;;12.29;60.88
39411;BME280;26579;43.238;23.124;2023-04-16T05:28:36;96471.66;;;12.39;61.40
39411;BME280;26579;43.238;23.124;2023-04-16T05:31:01;96465.97;;;12.44;61.36
39411;BME280;26579;43.238;23.124;2023-04-16T05:33:27;96474.69;;;12.53;61.20
39411;BME280;26579;43.238;23.124;2023-04-16T05:35:53;96484.19;;;12.54;62.94
39411;BME280;26579;43.238;23.124;2023-04-16T05:38:18;96481.81;;;12.42;63.44
39411;BME280;26579;43.238;23.124;2023-04-16T05:40:44;96480.44;;;12.38;64.06
39411;BME280;26579;43.238;23.124;2023-04-16T05:43:09;96490.53;;;12.51;61.69
39411;BME280;26579;43.238;23.124;2023-04-16T05:45:35;96473.50;;;12.47;62.42
39411;BME280;26579;43.238;23.124;2023-04-16T05:48:01;96479.88;;;12.62;63.33
39411;BME280;26579;43.238;23.124;2023-04-16T05:50:26;96471.19;;;12.62;63.32
39411;BME280;26579;43.238;23.124;2023-04-16T05:52:52;96486.63;;;12.73;62.17
39411;BME280;26579;43.238;23.124;2023-04-16T05:55:18;96487.16;;;12.77;60.76
39411;BME280;26579;43.238;23.124;2023-04-16T05:57:44;96481.63;;;12.80;60.79
39411;BME280;26579;43.238;23.124;2023-04-16T06:00:09;96479.56;;;12.83;62.88
39411;BME280;26579;43.238;23.124;2023-04-16T06:02:38;96483.66;;;12.86;63.91
39411;BME280;26579;43.238;23.124;2023-04-16T06:05:04;96471.41;;;12.86;65.61
39411;BME280;26579;43.238;23.124;2023-04-16T06:07:30;96474.91;;;12.95;66.18
39411;BME280;26579;43.238;23.124;2023-04-16T06:09:55;96469.75;;;13.03;65.90
39411;BME280;26579;43.238;23.124;2023-04-16T06:12:21;96465.41;;;13.12;65.91
39411;BME280;26579;43.238;23.124;2023-04-16T06:14:47;96453.78;;;13.06;63.93
39411;BME280;26579;43.238;23.124;2023-04-16T06:17:12;96451.59;;;13.02;64.02
39411;BME280;26579;43.238;23.124;2023-04-16T06:19:38;96469.66;;;13.13;63.35
39411;BME280;26579;43.238;23.124;2023-04-16T06:22:04;96463.91;;;13.09;62.19
39411;BME280;26579;43.238;23.124;2023-04-16T06:24:29;96453.91;;;13.05;63.09
39411;BME280;26579;43.238;23.124;2023-04-16T06:26:55;96467.53;;;13.17;64.05
39411;BME280;26579;43.238;23.124;2023-04-16T06:29:21;96463.72;;;13.29;63.47
39411;BME280;26579;43.238;23.124;2023-04-16T06:31:47;96464.47;;;13.39;63.14
39411;BME280;26579;43.238;23.124;2023-04-16T06:34:12;96466.50;;;13.53;63.50
39411;BME280;26579;43.238;23.124;2023-04-16T06:36:38;96458.66;;;13.53;62.45
39411;BME280;26579;43.238;23.124;2023-04-16T06:39:04;96449.16;;;13.52;61.51
39411;BME280;26579;43.238;23.124;2023-04-16T06:41:30;96463.03;;;13.79;61.41
39411;BME280;26579;43.238;23.124;2023-04-16T06:43:55;96465.44;;;13.72;59.70
39411;BME280;26579;43.238;23.124;2023-04-16T06:46:21;96463.72;;;13.89;59.39
39411;BME280;26579;43.238;23.124;2023-04-16T06:48:47;96463.78;;;14.06;58.01
39411;BME280;26579;43.238;23.124;2023-04-16T06:51:12;96470.53;;;14.24;58.22
39411;BME280;26579;43.238;23.124;2023-04-16T06:53:38;96465.19;;;14.34;57.20
39411;BME280;26579;43.238;23.124;2023-04-16T06:56:04;96463.72;;;14.48;56.53
39411;BME280;26579;43.238;23.124;2023-04-16T06:58:30;96454.72;;;14.50;55.19
39411;BME280;26579;43.238;23.124;2023-04-16T07:00:56;96470.97;;;14.62;55.58
39411;BME280;26579;43.238;23.124;2023-04-16T07:03:22;96461.97;;;14.65;55.57
39411;BME280;26579;43.238;23.124;2023-04-16T07:05:47;96461.00;;;14.90;55.14
39411;BME280;26579;43.238;23.124;2023-04-16T07:08:13;96463.94;;;15.12;54.01
39411;BME280;26579;43.238;23.124;2023-04-16T07:10:39;96467.69;;;15.34;52.68
39411;BME280;26579;43.238;23.124;2023-04-16T07:13:04;96458.00;;;15.43;50.55
39411;BME280;26579;43.238;23.124;2023-04-16T07:15:30;96447.84;;;15.39;50.51
39411;BME280;26579;43.238;23.124;2023-04-16T07:17:56;96462.59;;;15.32;50.63
39411;BME280;26579;43.238;23.124;2023-04-16T07:20:21;96471.13;;;15.34;51.06
39411;BME280;26579;43.238;23.124;2023-04-16T07:22:47;96458.63;;;15.53;49.68
39411;BME280;26579;43.238;23.124;2023-04-16T07:25:15;96460.16;;;15.95;49.94
39411;BME280;26579;43.238;23.124;2023-04-16T07:27:41;96458.19;;;16.28;48.38
39411;BME280;26579;43.238;23.124;2023-04-16T07:30:07;96444.00;;;16.37;47.12
39411;BME280;26579;43.238;23.124;2023-04-16T07:32:33;96460.47;;;16.31;46.56
39411;BME280;26579;43.238;23.124;2023-04-16T07:34:59;96462.50;;;16.21;46.35
39411;BME280;26579;43.238;23.124;2023-04-16T07:37:24;96463.38;;;16.36;46.50
39411;BME280;26579;43.238;23.124;2023-04-16T07:39:50;96461.88;;;16.42;46.94
39411;BME280;26579;43.238;23.124;2023-04-16T07:42:16;96458.56;;;16.48;46.82
39411;BME280;26579;43.238;23.124;2023-04-16T07:44:41;96456.03;;;16.55;46.13
39411;BME280;26579;43.238;23.124;2023-04-16T07:47:07;96462.38;;;16.91;45.50
39411;BME280;26579;43.238;23.124;2023-04-16T07:49:33;96467.97;;;17.11;45.17
39411;BME280;26579;43.238;23.124;2023-04-16T07:51:58;96462.09;;;17.24;43.87
39411;BME280;26579;43.238;23.124;2023-04-16T07:54:24;96459.69;;;17.52;44.14
39411;BME280;26579;43.238;23.124;2023-04-16T07:56:50;96461.50;;;17.67;43.90
39411;BME280;26579;43.238;23.124;2023-04-16T07:59:16;96459.53;;;17.69;43.57
39411;BME280;26579;43.238;23.124;2023-04-16T08:01:42;96460.41;;;17.76;43.83
39411;BME280;26579;43.238;23.124;2023-04-16T08:04:07;96458.91;;;17.81;43.76
39411;BME280;26579;43.238;23.124;2023-04-16T08:06:33;96459.44;;;17.92;43.13
39411;BME280;26579;43.238;23.124;2023-04-16T08:08:59;96460.63;;;17.89;42.98
39411;BME280;26579;43.238;23.124;2023-04-16T08:11:24;96467.69;;;17.88;42.54
39411;BME280;26579;43.238;23.124;2023-04-16T08:13:50;96463.88;;;17.91;43.13
39411;BME280;26579;43.238;23.124;2023-04-16T08:16:16;96456.78;;;17.77;42.25
39411;BME280;26579;43.238;23.124;2023-04-16T08:18:41;96466.72;;;17.90;42.72
39411;BME280;26579;43.238;23.124;2023-04-16T08:21:07;96465.63;;;17.99;42.97
39411;BME280;26579;43.238;23.124;2023-04-16T08:23:33;96448.66;;;18.23;42.21
39411;BME280;26579;43.238;23.124;2023-04-16T08:25:59;96447.16;;;18.14;41.67
39411;BME280;26579;43.238;23.124;2023-04-16T08:28:25;96456.09;;;17.98;41.77
39411;BME280;26579;43.238;23.124;2023-04-16T08:30:51;96459.91;;;17.95;41.60
39411;BME280;26579;43.238;23.124;2023-04-16T08:33:16;96444.09;;;17.95;42.46
39411;BME280;26579;43.238;23.124;2023-04-16T08:35:42;96467.53;;;17.90;43.37
39411;BME280;26579;43.238;23.124;2023-04-16T08:38:08;96462.25;;;17.60;43.55
39411;BME280;26579;43.238;23.124;2023-04-16T08:40:37;96466.75;;;17.22;44.63
39411;BME280;26579;43.238;23.124;2023-04-16T08:43:04;96456.91;;;17.16;44.37
39411;BME280;26579;43.238;23.124;2023-04-16T08:45:33;96467.88;;;17.05;45.14
39411;BME280;26579;43.238;23.124;2023-04-16T08:47:59;96467.59;;;17.00;44.68
39411;BME280;26579;43.238;23.124;2023-04-16T08:50:26;96460.81;;;17.05;44.16
39411;BME280;26579;43.238;23.124;2023-04-16T08:53:15;96446.00;;;17.04;44.98
39411;BME280;26579;43.238;23.124;2023-04-16T08:55:46;96463.88;;;17.09;45.25
39411;BME280;26579;43.238;23.124;2023-04-16T08:58:18;96471.19;;;16.98;45.76
39411;BME280;26579;43.238;23.124;2023-04-16T09:00:46;96474.56;;;17.07;45.54
39411;BME280;26579;43.238;23.124;2023-04-16T09:03:12;96480.28;;;16.96;45.35
39411;BME280;26579;43.238;23.124;2023-04-16T09:05:38;96480.78;;;16.91;45.15
39411;BME280;26579;43.238;23.124;2023-04-16T09:08:04;96469.47;;;16.91;46.03
39411;BME280;26579;43.238;23.124;2023-04-16T09:10:31;96464.47;;;16.73;46.09
39411;BME280;26579;43.238;23.124;2023-04-16T09:12:57;96476.56;;;16.59;46.16
39411;BME280;26579;43.238;23.124;2023-04-16T09:15:24;96475.44;;;16.53;47.19
39411;BME280;26579;43.238;23.124;2023-04-16T09:17:50;96478.31;;;16.44;47.34
39411;BME280;26579;43.238;23.124;2023-04-16T09:20:16;96475.09;;;16.57;48.26
39411;BME280;26579;43.238;23.124;2023-04-16T09:22:42;96480.59;;;16.70;46.84
39411;BME280;26579;43.238;23.124;2023-04-16T09:25:09;96475.28;;;16.78;47.10
39411;BME280;26579;43.238;23.124;2023-04-16T09:27:35;96476.34;;;16.92;46.79
39411;BME280;26579;43.238;23.124;2023-04-16T09:30:17;96481.13;;;17.11;46.40
39411;BME280;26579;43.238;23.124;2023-04-16T09:32:43;96487.28;;;17.18;46.98
39411;BME280;26579;43.238;23.124;2023-04-16T09:35:09;96480.41;;;17.17;46.50
39411;BME280;26579;43.238;23.124;2023-04-16T09:37:34;96471.03;;;17.00;46.92
39411;BME280;26579;43.238;23.124;2023-04-16T09:40:04;96471.72;;;17.17;47.10
39411;BME280;26579;43.238;23.124;2023-04-16T09:42:33;96480.22;;;17.19;46.30
39411;BME280;26579;43.238;23.124;2023-04-16T09:44:59;96482.31;;;17.24;45.90
39411;BME280;26579;43.238;23.124;2023-04-16T09:47:43;96472.19;;;16.97;46.32
39411;BME280;26579;43.238;23.124;2023-04-16T09:50:14;96473.00;;;16.98;46.65
39411;BME280;26579;43.238;23.124;2023-04-16T09:52:42;96466.22;;;17.04;47.33
39411;BME280;26579;43.238;23.124;2023-04-16T09:55:08;96482.41;;;16.92;46.71
39411;BME280;26579;43.238;23.124;2023-04-16T09:57:36;96480.09;;;16.97;47.45
39411;BME280;26579;43.238;23.124;2023-04-16T10:00:04;96473.41;;;16.87;48.15
39411;BME280;26579;43.238;23.124;2023-04-16T10:02:31;96471.75;;;16.94;47.68
39411;BME280;26579;43.238;23.124;2023-04-16T10:04:57;96470.78;;;16.87;48.04
39411;BME280;26579;43.238;23.124;2023-04-16T10:07:32;96482.56;;;16.99;48.05
39411;BME280;26579;43.238;23.124;2023-04-16T10:09:58;96485.28;;;16.83;47.93
39411;BME280;26579;43.238;23.124;2023-04-16T10:12:23;96465.00;;;16.68;48.12
39411;BME280;26579;43.238;23.124;2023-04-16T10:14:49;96479.94;;;16.76;48.88
39411;BME280;26579;43.238;23.124;2023-04-16T10:17:15;96473.81;;;16.75;47.89
39411;BME280;26579;43.238;23.124;2023-04-16T10:19:42;96473.56;;;16.93;47.78
39411;BME280;26579;43.238;23.124;2023-04-16T10:22:08;96471.41;;;17.12;47.96
39411;BME280;26579;43.238;23.124;2023-04-16T10:24:33;96466.13;;;17.50;47.64
39411;BME280;26579;43.238;23.124;2023-04-16T10:27:00;96473.16;;;17.87;46.90
39411;BME280;26579;43.238;23.124;2023-04-16T10:29:28;96469.00;;;17.78;46.64
39411;BME280;26579;43.238;23.124;2023-04-16T10:31:55;96464.59;;;17.70;47.13
39411;BME280;26579;43.238;23.124;2023-04-16T10:34:21;96470.50;;;17.72;46.10
39411;BME280;26579;43.238;23.124;2023-04-16T10:36:51;96474.03;;;17.64;46.43
39411;BME280;26579;43.238;23.124;2023-04-16T10:39:20;96468.22;;;17.54;46.41
39411;BME280;26579;43.238;23.124;2023-04-16T10:41:46;96441.78;;;17.18;45.99
39411;BME280;26579;43.238;23.124;2023-04-16T10:44:16;96465.09;;;17.21;46.69
39411;BME280;26579;43.238;23.124;2023-04-16T10:46:46;96452.25;;;17.03;46.81
39411;BME280;26579;43.238;23.124;2023-04-16T10:49:21;96475.38;;;17.31;47.86
39411;BME280;26579;43.238;23.124;2023-04-16T10:52:14;96475.09;;;17.26;47.05
39411;BME280;26579;43.238;23.124;2023-04-16T10:54:40;96473.00;;;17.36;47.22
39411;BME280;26579;43.238;23.124;2023-04-16T10:57:08;96470.06;;;17.16;47.17
39411;BME280;26579;43.238;23.124;2023-04-16T10:59:36;96456.50;;;17.04;47.87
39411;BME280;26579;43.238;23.124;2023-04-16T11:02:07;96472.06;;;17.14;48.11
39411;BME280;26579;43.238;23.124;2023-04-16T11:04:36;96463.00;;;17.16;47.89
39411;BME280;26579;43.238;23.124;2023-04-16T11:09:53;96454.13;;;17.32;47.39
39411;BME280;26579;43.238;23.124;2023-04-16T11:14:57;96472.16;;;17.20;47.71
39411;BME280;26579;43.238;23.124;2023-04-16T11:17:28;96469.38;;;17.22;47.24
39411;BME280;26579;43.238;23.124;2023-04-16T11:19:54;96474.06;;;17.27;47.29
39411;BME280;26579;43.238;23.124;2023-04-16T11:22:20;96473.91;;;17.28;47.22
39411;BME280;26579;43.238;23.124;2023-04-16T11:24:46;96473.91;;;17.28;47.39
39411;BME280;26579;43.238;23.124;2023-04-16T11:27:13;96472.63;;;17.39;48.41
39411;BME280;26579;43.238;23.124;2023-04-16T11:29:39;96460.13;;;17.26;47.67
39411;BME280;26579;43.238;23.124;2023-04-16T11:32:04;96454.28;;;17.16;47.38
39411;BME280;26579;43.238;23.124;2023-04-16T11:34:30;96458.78;;;17.07;47.93
39411;BME280;26579;43.238;23.124;2023-04-16T11:36:56;96463.13;;;17.38;47.79
39411;BME280;26579;43.238;23.124;2023-04-16T11:39:22;96460.69;;;17.66;48.56
39411;BME280;26579;43.238;23.124;2023-04-16T11:41:49;96460.38;;;17.84;47.45
39411;BME280;26579;43.238;23.124;2023-04-16T11:44:17;96454.00;;;17.93;46.78
39411;BME280;26579;43.238;23.124;2023-04-16T11:46:43;96454.06;;;17.70;46.44
39411;BME280;26579;43.238;23.124;2023-04-16T11:49:08;96442.00;;;17.61;46.62
39411;BME280;26579;43.238;23.124;2023-04-16T11:51:41;96440.53;;;17.58;46.89
39411;BME280;26579;43.238;23.124;2023-04-16T11:54:08;96449.91;;;17.61;46.94
39411;BME280;26579;43.238;23.124;2023-04-16T11:56:35;96447.25;;;17.46;46.93
39411;BME280;26579;43.238;23.124;2023-04-16T12:01:34;96450.53;;;17.63;47.19
39411;BME280;26579;43.238;23.124;2023-04-16T12:04:00;96449.59;;;17.71;46.90
39411;BME280;26579;43.238;23.124;2023-04-16T12:06:26;96450.25;;;17.58;45.90
39411;BME280;26579;43.238;23.124;2023-04-16T12:08:52;96451.97;;;17.65;45.72
39411;BME280;26579;43.238;23.124;2023-04-16T12:11:18;96435.56;;;17.63;46.73
39411;BME280;26579;43.238;23.124;2023-04-16T12:14:09;96441.50;;;17.80;45.09
39411;BME280;26579;43.238;23.124;2023-04-16T12:16:35;96441.13;;;17.83;46.10
39411;BME280;26579;43.238;23.124;2023-04-16T12:19:02;96429.13;;;17.81;46.32
39411;BME280;26579;43.238;23.124;2023-04-16T12:21:39;96445.09;;;17.94;45.73
39411;BME280;26579;43.238;23.124;2023-04-16T12:24:06;96446.91;;;17.79;44.89
39411;BME280;26579;43.238;23.124;2023-04-16T12:26:43;96436.94;;;17.89;45.06
39411;BME280;26579;43.238;23.124;2023-04-16T12:29:17;96424.19;;;18.07;44.67
39411;BME280;26579;43.238;23.124;2023-04-16T12:31:43;96418.25;;;18.20;43.88
39411;BME280;26579;43.238;23.124;2023-04-16T12:34:09;96417.06;;;18.23;44.54
39411;BME280;26579;43.238;23.124;2023-04-16T12:36:35;96421.09;;;18.40;44.37
39411;BME280;26579;43.238;23.124;2023-04-16T12:39:01;96419.78;;;18.15;43.44
39411;BME280;26579;43.238;23.124;2023-04-16T12:41:26;96408.13;;;18.02;43.78
39411;BME280;26579;43.238;23.124;2023-04-16T12:44:04;96402.78;;;17.96;44.46
39411;BME280;26579;43.238;23.124;2023-04-16T12:46:30;96416.56;;;17.83;45.21
39411;BME280;26579;43.238;23.124;2023-04-16T12:48:55;96414.66;;;17.92;45.65
39411;BME280;26579;43.238;23.124;2023-04-16T12:51:21;96409.28;;;18.00;45.43
39411;BME280;26579;43.238;23.124;2023-04-16T12:53:47;96402.03;;;18.02;44.96
39411;BME280;26579;43.238;23.124;2023-04-16T12:56:13;96402.75;;;18.10;45.19